createdAt,value
2024-02-11T00:01:22.864Z,20.43
2024-02-11T00:03:51.102Z,20.40
2024-02-11T00:06:19.309Z,20.39
2024-02-11T00:08:50.887Z,20.38
2024-02-11T00:11:19.251Z,20.37
2024-02-11T00:13:47.734Z,20.38
2024-02-11T00:16:16.219Z,20.37
2024-02-11T00:18:45.823Z,20.37
2024-02-11T00:21:14.567Z,20.36
2024-02-11T00:23:46.156Z,20.37
2024-02-11T00:26:14.824Z,20.38
2024-02-11T00:28:43.285Z,20.39
2024-02-11T00:31:13.325Z,20.39
2024-02-11T00:33:42.391Z,20.39
2024-02-11T00:36:12.269Z,20.39
2024-02-11T00:38:40.641Z,20.39
2024-02-11T00:41:08.934Z,20.40
2024-02-11T00:43:38.058Z,20.40
2024-02-11T00:46:06.419Z,20.39
2024-02-11T00:48:34.709Z,20.38
2024-02-11T00:51:03.167Z,20.38
2024-02-11T00:53:32.768Z,20.38
2024-02-11T00:56:01.054Z,20.38
2024-02-11T00:58:29.299Z,20.37
2024-02-11T01:00:57.455Z,20.37
2024-02-11T01:03:25.596Z,20.36
2024-02-11T01:05:54.187Z,20.35
2024-02-11T01:08:23.720Z,20.35
2024-02-11T01:10:53.342Z,20.33
2024-02-11T01:13:21.881Z,20.32
2024-02-11T01:15:50.195Z,20.34
2024-02-11T01:18:19.118Z,20.33
2024-02-11T01:20:49.334Z,20.34
2024-02-11T01:25:47.133Z,20.34
2024-02-11T01:28:16.673Z,20.33
2024-02-11T01:30:46.385Z,20.34
2024-02-11T01:33:14.634Z,20.33
2024-02-11T01:35:43.279Z,20.32
2024-02-11T01:38:12.597Z,20.33
2024-02-11T01:40:41.760Z,20.31
2024-02-11T01:43:11.320Z,20.31
2024-02-11T01:45:40.951Z,20.31
2024-02-11T01:48:11.418Z,20.34
2024-02-11T01:50:42.018Z,20.35
2024-02-11T01:53:11.478Z,20.37
2024-02-11T01:55:43.104Z,20.39
2024-02-11T01:58:11.656Z,20.41
2024-02-11T02:00:42.317Z,20.41
2024-02-11T02:03:11.306Z,20.42
2024-02-11T02:05:40.486Z,20.43
2024-02-11T02:08:10.178Z,20.44
2024-02-11T02:10:38.944Z,20.44
2024-02-11T02:13:07.197Z,20.43
2024-02-11T02:15:35.362Z,20.43
2024-02-11T02:18:05.507Z,20.43
2024-02-11T02:20:33.773Z,20.42
2024-02-11T02:23:03.694Z,20.42
2024-02-11T02:25:34.163Z,20.42
2024-02-11T02:28:05.598Z,20.41
2024-02-11T02:30:35.140Z,20.39
2024-02-11T02:33:03.462Z,20.39
2024-02-11T02:35:32.875Z,20.37
2024-02-11T02:38:02.554Z,20.37
2024-02-11T02:40:32.381Z,20.36
2024-02-11T02:43:01.920Z,20.34
2024-02-11T02:45:30.103Z,20.34
2024-02-11T02:47:58.342Z,20.34
2024-02-11T02:50:26.558Z,20.34
2024-02-11T02:52:54.807Z,20.35
2024-02-11T02:55:24.339Z,20.36
2024-02-11T02:57:52.890Z,20.37
2024-02-11T03:00:22.188Z,20.37
2024-02-11T03:02:53.853Z,20.37
2024-02-11T03:05:23.658Z,20.38
2024-02-11T03:07:54.615Z,20.38
2024-02-11T03:10:24.588Z,20.38
2024-02-11T03:12:52.830Z,20.38
2024-02-11T03:15:21.042Z,20.39
2024-02-11T03:17:50.064Z,20.38
2024-02-11T03:20:18.294Z,20.38
2024-02-11T03:22:46.734Z,20.37
2024-02-11T03:25:16.431Z,20.36
2024-02-11T03:27:48.127Z,20.37
2024-02-11T03:30:18.342Z,20.36
2024-02-11T03:32:48.565Z,20.34
2024-02-11T03:35:17.739Z,20.35
2024-02-11T03:37:46.258Z,20.34
2024-02-11T03:40:18.110Z,20.33
2024-02-11T03:42:48.343Z,20.33
2024-02-11T03:45:20.208Z,20.33
2024-02-11T03:47:50.074Z,20.33
2024-02-11T03:50:20.268Z,20.34
2024-02-11T03:52:48.539Z,20.36
2024-02-11T03:55:16.918Z,20.39
2024-02-11T03:57:45.149Z,20.40
2024-02-11T04:00:17.673Z,20.42
2024-02-11T04:02:45.762Z,20.42
2024-02-11T04:05:17.482Z,20.42
2024-02-11T04:07:48.253Z,20.42
2024-02-11T04:10:21.216Z,20.42
2024-02-11T04:12:53.214Z,20.42
2024-02-11T04:15:24.372Z,20.42
2024-02-11T04:17:54.965Z,20.42
2024-02-11T04:20:26.980Z,20.41
2024-02-11T04:22:58.991Z,20.40
2024-02-11T04:25:30.476Z,20.39
2024-02-11T04:27:58.848Z,20.38
2024-02-11T04:30:31.066Z,20.37
2024-02-11T04:33:00.411Z,20.36
2024-02-11T04:35:28.842Z,20.35
2024-02-11T04:37:57.134Z,20.34
2024-02-11T04:40:27.005Z,20.34
2024-02-11T04:42:57.960Z,20.32
2024-02-11T04:45:28.355Z,20.31
2024-02-11T04:48:00.573Z,20.31
2024-02-11T04:50:30.177Z,20.28
2024-02-11T04:53:03.740Z,20.29
2024-02-11T04:55:40.552Z,20.29
2024-02-11T04:58:16.566Z,20.30
2024-02-11T05:00:49.086Z,20.32
2024-02-11T05:03:20.447Z,20.34
2024-02-11T05:05:51.651Z,20.37
2024-02-11T05:08:22.290Z,20.39
2024-02-11T05:10:53.750Z,20.42
2024-02-11T05:13:25.259Z,20.45
2024-02-11T05:15:58.775Z,20.45
2024-02-11T05:18:30.737Z,20.47
2024-02-11T05:20:59.196Z,20.46
2024-02-11T05:23:30.125Z,20.46
2024-02-11T05:26:00.603Z,20.47
2024-02-11T05:28:28.813Z,20.46
2024-02-11T05:30:58.303Z,20.46
2024-02-11T05:33:26.912Z,20.45
2024-02-11T05:35:55.452Z,20.45
2024-02-11T05:38:25.595Z,20.44
2024-02-11T05:40:58.627Z,20.44
2024-02-11T05:43:28.133Z,20.42
2024-02-11T05:45:58.387Z,20.41
2024-02-11T05:48:28.766Z,20.41
2024-02-11T05:50:56.968Z,20.39
2024-02-11T05:53:25.146Z,20.37
2024-02-11T05:55:54.438Z,20.37
2024-02-11T05:58:23.230Z,20.36
2024-02-11T06:00:51.616Z,20.34
2024-02-11T06:03:22.797Z,20.33
2024-02-11T06:05:51.448Z,20.32
2024-02-11T06:08:21.490Z,20.30
2024-02-11T06:10:50.473Z,20.28
2024-02-11T06:13:19.292Z,20.27
2024-02-11T06:15:48.948Z,20.26
2024-02-11T06:18:18.889Z,20.25
2024-02-11T06:20:48.674Z,20.23
2024-02-11T06:23:17.807Z,20.21
2024-02-11T06:25:46.049Z,20.21
2024-02-11T06:28:15.045Z,20.19
2024-02-11T06:30:43.809Z,20.19
2024-02-11T06:33:12.354Z,20.20
2024-02-11T06:35:41.357Z,20.20
2024-02-11T06:38:13.498Z,20.22
2024-02-11T06:40:41.973Z,20.26
2024-02-11T06:43:13.014Z,20.27
2024-02-11T06:45:47.731Z,20.28
2024-02-11T06:48:16.783Z,20.29
2024-02-11T06:50:45.139Z,20.29
2024-02-11T06:53:14.772Z,20.29
2024-02-11T06:55:43.129Z,20.28
2024-02-11T06:58:11.907Z,20.28
2024-02-11T07:00:40.576Z,20.27
2024-02-11T07:03:11.283Z,20.26
2024-02-11T07:05:42.494Z,20.26
2024-02-11T07:08:12.164Z,20.24
2024-02-11T07:10:42.950Z,20.23
2024-02-11T07:13:11.107Z,20.20
2024-02-11T07:15:39.436Z,20.21
2024-02-11T07:18:08.338Z,20.19
2024-02-11T07:20:37.113Z,20.19
2024-02-11T07:23:06.824Z,20.18
2024-02-11T07:25:35.266Z,20.16
2024-02-11T07:28:06.210Z,20.14
2024-02-11T07:30:35.512Z,20.13
2024-02-11T07:33:03.926Z,20.11
2024-02-11T07:35:32.325Z,20.10
2024-02-11T07:38:03.311Z,20.10
2024-02-11T07:40:32.575Z,20.09
2024-02-11T07:43:00.811Z,20.08
2024-02-11T07:45:30.532Z,20.09
2024-02-11T07:47:59.427Z,20.11
2024-02-11T07:50:28.618Z,20.12
2024-02-11T07:52:57.180Z,20.15
2024-02-11T07:55:25.460Z,20.17
2024-02-11T07:57:53.819Z,20.18
2024-02-11T08:00:22.452Z,20.19
2024-02-11T08:02:53.034Z,20.19
2024-02-11T08:05:24.347Z,20.20
2024-02-11T08:07:54.322Z,20.18
2024-02-11T08:10:24.167Z,20.19
2024-02-11T08:12:53.379Z,20.18
2024-02-11T08:15:21.828Z,20.18
2024-02-11T08:17:51.934Z,20.17
2024-02-11T08:20:21.202Z,20.16
2024-02-11T08:22:50.357Z,20.15
2024-02-11T08:25:18.936Z,20.13
2024-02-11T08:27:47.282Z,20.13
2024-02-11T08:30:15.606Z,20.12
2024-02-11T08:32:45.309Z,20.11
2024-02-11T08:35:15.755Z,20.10
2024-02-11T08:37:44.718Z,20.09
2024-02-11T08:40:13.915Z,20.08
2024-02-11T08:42:42.265Z,20.11
2024-02-11T08:45:12.499Z,20.14
2024-02-11T08:47:41.571Z,20.20
2024-02-11T08:50:12.628Z,20.27
2024-02-11T08:52:43.743Z,20.36
2024-02-11T08:55:12.839Z,20.42
2024-02-11T08:57:41.157Z,20.48
2024-02-11T09:00:14.901Z,20.54
2024-02-11T09:02:44.457Z,20.62
2024-02-11T09:05:13.221Z,20.67
2024-02-11T09:07:44.535Z,20.71
2024-02-11T09:10:15.892Z,20.75
2024-02-11T09:12:44.676Z,20.76
2024-02-11T09:15:17.914Z,20.79
2024-02-11T09:17:47.623Z,20.81
2024-02-11T09:20:16.850Z,20.82
2024-02-11T09:22:47.030Z,20.82
2024-02-11T09:25:16.192Z,20.83
2024-02-11T09:27:44.915Z,20.84
2024-02-11T09:30:17.046Z,20.84
2024-02-11T09:32:47.988Z,20.83
2024-02-11T09:35:18.586Z,20.84
2024-02-11T09:37:48.289Z,20.83
2024-02-11T09:40:19.282Z,20.82
2024-02-11T09:42:48.781Z,20.82
2024-02-11T09:45:19.542Z,20.80
2024-02-11T09:47:54.121Z,20.79
2024-02-11T09:50:25.311Z,20.77
2024-02-11T09:52:55.303Z,20.75
2024-02-11T09:55:23.828Z,20.76
2024-02-11T09:57:52.704Z,20.77
2024-02-11T10:00:22.184Z,20.81
2024-02-11T10:02:52.464Z,20.83
2024-02-11T10:05:25.374Z,20.86
2024-02-11T10:07:57.536Z,20.89
2024-02-11T10:10:26.748Z,20.91
2024-02-11T10:12:58.330Z,20.94
2024-02-11T10:15:28.051Z,20.96
2024-02-11T10:17:57.449Z,20.96
2024-02-11T10:20:26.390Z,20.97
2024-02-11T10:22:57.180Z,20.97
2024-02-11T10:25:28.352Z,20.98
2024-02-11T10:27:57.203Z,21.00
2024-02-11T10:30:25.706Z,21.02
2024-02-11T10:32:59.725Z,21.03
2024-02-11T10:35:30.499Z,21.04
2024-02-11T10:38:02.369Z,21.07
2024-02-11T10:40:31.198Z,21.08
2024-02-11T10:43:01.168Z,21.10
2024-02-11T10:45:29.865Z,21.11
2024-02-11T10:47:58.860Z,21.12
2024-02-11T10:50:28.524Z,21.11
2024-02-11T10:53:04.683Z,21.11
2024-02-11T10:55:42.374Z,21.13
2024-02-11T10:58:13.296Z,21.14
2024-02-11T11:00:44.695Z,21.16
2024-02-11T11:03:16.031Z,21.18
2024-02-11T11:05:45.437Z,21.17
2024-02-11T11:08:15.948Z,21.23
2024-02-11T11:10:44.432Z,21.27
2024-02-11T11:13:14.007Z,21.31
2024-02-11T11:15:52.973Z,21.35
2024-02-11T11:18:25.361Z,21.39
2024-02-11T11:20:54.511Z,21.43
2024-02-11T11:23:28.227Z,21.48
2024-02-11T11:25:57.883Z,21.51
2024-02-11T11:28:31.522Z,21.53
2024-02-11T11:30:59.985Z,21.55
2024-02-11T11:33:35.530Z,21.56
2024-02-11T11:36:05.266Z,21.58
2024-02-11T11:38:35.218Z,21.61
2024-02-11T11:41:04.440Z,21.63
2024-02-11T11:43:33.703Z,21.65
2024-02-11T11:46:06.626Z,21.67
2024-02-11T11:48:37.760Z,21.69
2024-02-11T11:51:08.212Z,21.70
2024-02-11T11:53:38.978Z,21.74
2024-02-11T11:56:08.155Z,21.78
2024-02-11T11:58:36.484Z,21.77
2024-02-11T12:01:06.703Z,21.77
2024-02-11T12:03:38.145Z,21.73
2024-02-11T12:06:07.434Z,21.72
2024-02-11T12:08:39.051Z,21.72
2024-02-11T12:11:09.439Z,21.73
2024-02-11T12:13:40.687Z,21.72
2024-02-11T12:16:16.545Z,21.71
2024-02-11T12:18:46.763Z,21.70
2024-02-11T12:21:16.549Z,21.69
2024-02-11T12:23:46.661Z,21.70
2024-02-11T12:26:21.102Z,21.68
2024-02-11T12:28:53.189Z,21.67
2024-02-11T12:31:24.523Z,21.65
2024-02-11T12:33:54.142Z,21.65
2024-02-11T12:36:26.772Z,21.64
2024-02-11T12:38:59.060Z,21.62
2024-02-11T12:41:30.332Z,21.60
2024-02-11T12:43:58.653Z,21.58
2024-02-11T12:46:27.020Z,21.58
2024-02-11T12:48:56.611Z,21.57
2024-02-11T12:51:24.915Z,21.57
2024-02-11T12:53:53.885Z,21.54
2024-02-11T12:56:23.780Z,21.54
2024-02-11T12:58:52.215Z,21.54
2024-02-11T13:01:21.736Z,21.52
2024-02-11T13:03:50.081Z,21.51
2024-02-11T13:06:19.069Z,21.50
2024-02-11T13:08:49.034Z,21.49
2024-02-11T13:11:23.195Z,21.48
2024-02-11T13:13:58.757Z,21.47
2024-02-11T13:16:27.167Z,21.47
2024-02-11T13:18:55.456Z,21.45
2024-02-11T13:21:23.690Z,21.47
2024-02-11T13:23:51.880Z,21.49
2024-02-11T13:26:20.196Z,21.49
2024-02-11T13:28:49.128Z,21.51
2024-02-11T13:31:25.401Z,21.56
2024-02-11T13:33:55.924Z,21.62
2024-02-11T13:36:24.514Z,21.67
2024-02-11T13:38:52.989Z,21.73
2024-02-11T13:41:21.465Z,21.78
2024-02-11T13:43:49.720Z,21.82
2024-02-11T13:46:19.451Z,21.84
2024-02-11T13:48:54.204Z,21.85
2024-02-11T13:51:23.624Z,21.88
2024-02-11T13:53:51.914Z,21.89
2024-02-11T13:56:20.126Z,21.90
2024-02-11T13:58:48.477Z,21.87
2024-02-11T14:01:18.185Z,21.87
2024-02-11T14:03:48.060Z,21.87
2024-02-11T14:06:16.986Z,21.87
2024-02-11T14:08:46.623Z,21.87
2024-02-11T14:11:15.136Z,21.86
2024-02-11T14:13:43.404Z,21.84
2024-02-11T14:16:12.423Z,21.83
2024-02-11T14:18:42.060Z,21.84
2024-02-11T14:21:10.445Z,21.81
2024-02-11T14:23:41.171Z,21.81
2024-02-11T14:26:10.430Z,21.79
2024-02-11T14:28:39.012Z,21.78
2024-02-11T14:31:07.160Z,21.77
2024-02-11T14:33:35.567Z,21.76
2024-02-11T14:36:06.478Z,21.76
2024-02-11T14:38:35.014Z,21.76
2024-02-11T14:41:04.215Z,21.76
2024-02-11T14:43:35.806Z,21.74
2024-02-11T14:46:05.304Z,21.75
2024-02-11T14:48:33.843Z,21.70
2024-02-11T14:51:03.296Z,21.66
2024-02-11T14:53:33.564Z,21.64
2024-02-11T14:56:02.157Z,21.65
2024-02-11T14:58:30.978Z,21.69
2024-02-11T15:00:59.267Z,21.68
2024-02-11T15:03:30.452Z,21.67
2024-02-11T15:05:58.993Z,21.69
2024-02-11T15:08:28.165Z,21.69
2024-02-11T15:10:58.806Z,21.70
2024-02-11T15:13:27.820Z,21.71
2024-02-11T15:15:56.059Z,21.72
2024-02-11T15:18:24.222Z,21.71
2024-02-11T15:20:52.466Z,21.71
2024-02-11T15:23:20.655Z,21.70
2024-02-11T15:25:50.039Z,21.68
2024-02-11T15:28:19.943Z,21.68
2024-02-11T15:30:48.573Z,21.67
2024-02-11T15:33:17.444Z,21.65
2024-02-11T15:35:52.463Z,21.64
2024-02-11T15:38:27.114Z,21.62
2024-02-11T15:40:56.682Z,21.61
2024-02-11T15:43:26.527Z,21.57
2024-02-11T15:45:54.692Z,21.56
2024-02-11T15:48:23.398Z,21.54
2024-02-11T15:50:51.830Z,21.50
2024-02-11T15:53:20.275Z,21.49
2024-02-11T15:55:50.888Z,21.48
2024-02-11T15:58:20.163Z,21.47
2024-02-11T16:00:49.885Z,21.49
2024-02-11T16:03:18.201Z,21.50
2024-02-11T16:05:47.159Z,21.53
2024-02-11T16:08:15.835Z,21.57
2024-02-11T16:10:43.234Z,21.61
2024-02-11T16:13:11.468Z,21.65
2024-02-11T16:15:40.075Z,21.67
2024-02-11T16:18:09.871Z,21.69
2024-02-11T16:20:38.389Z,21.70
2024-02-11T16:23:06.853Z,21.71
2024-02-11T16:25:38.776Z,21.72
2024-02-11T16:28:08.084Z,21.72
2024-02-11T16:30:37.125Z,21.71
2024-02-11T16:33:06.468Z,21.70
2024-02-11T16:35:36.502Z,21.68
2024-02-11T16:38:06.000Z,21.67
2024-02-11T16:40:34.259Z,21.65
2024-02-11T16:43:02.954Z,21.63
2024-02-11T16:45:31.270Z,21.59
2024-02-11T16:47:59.596Z,21.59
2024-02-11T16:50:28.021Z,21.54
2024-02-11T16:52:58.013Z,21.53
2024-02-11T16:55:26.293Z,21.50
2024-02-11T16:57:54.464Z,21.48
2024-02-11T17:00:23.251Z,21.45
2024-02-11T17:02:51.959Z,21.42
2024-02-11T17:05:20.493Z,21.40
2024-02-11T17:07:49.951Z,21.37
2024-02-11T17:10:22.081Z,21.34
2024-02-11T17:12:50.934Z,21.33
2024-02-11T17:15:19.298Z,21.34
2024-02-11T17:17:50.253Z,21.36
2024-02-11T17:20:25.122Z,21.42
2024-02-11T17:22:55.803Z,21.48
2024-02-11T17:25:25.773Z,21.51
2024-02-11T17:27:55.926Z,21.57
2024-02-11T17:30:25.684Z,21.60
2024-02-11T17:32:59.493Z,21.61
2024-02-11T17:35:31.818Z,21.63
2024-02-11T17:38:01.187Z,21.63
2024-02-11T17:40:31.474Z,21.64
2024-02-11T17:43:00.238Z,21.64
2024-02-11T17:45:29.108Z,21.63
2024-02-11T17:47:57.584Z,21.61
2024-02-11T17:50:26.884Z,21.60
2024-02-11T17:52:55.880Z,21.59
2024-02-11T17:55:24.196Z,21.58
2024-02-11T17:57:53.918Z,21.49
2024-02-11T18:00:23.463Z,21.45
2024-02-11T18:02:52.179Z,21.45
2024-02-11T18:05:21.497Z,21.43
2024-02-11T18:07:50.205Z,21.40
2024-02-11T18:10:19.602Z,21.39
2024-02-11T18:12:49.505Z,21.37
2024-02-11T18:15:20.102Z,21.36
2024-02-11T18:17:50.518Z,21.35
2024-02-11T18:20:19.639Z,21.34
2024-02-11T18:22:49.341Z,21.31
2024-02-11T18:25:24.493Z,21.29
2024-02-11T18:28:04.801Z,21.27
2024-02-11T18:30:36.998Z,21.25
2024-02-11T18:33:05.656Z,21.23
2024-02-11T18:35:34.496Z,21.21
2024-02-11T18:38:03.118Z,21.20
2024-02-11T18:40:32.084Z,21.16
2024-02-11T18:43:00.290Z,21.14
2024-02-11T18:45:28.586Z,21.13
2024-02-11T18:47:58.264Z,21.11
2024-02-11T18:50:26.933Z,21.09
2024-02-11T18:52:55.385Z,21.08
2024-02-11T18:55:23.839Z,21.05
2024-02-11T18:57:52.190Z,21.03
2024-02-11T19:00:21.565Z,21.01
2024-02-11T19:02:49.798Z,21.00
2024-02-11T19:05:19.317Z,20.98
2024-02-11T19:07:47.712Z,20.96
2024-02-11T19:10:19.462Z,20.95
2024-02-11T19:12:48.486Z,20.93
2024-02-11T19:15:16.882Z,20.90
2024-02-11T19:17:49.884Z,20.88
2024-02-11T19:20:20.631Z,20.85
2024-02-11T19:22:49.666Z,20.83
2024-02-11T19:25:18.709Z,20.81
2024-02-11T19:27:47.532Z,20.79
2024-02-11T19:30:16.745Z,20.78
2024-02-11T19:32:45.309Z,20.76
2024-02-11T19:35:15.361Z,20.75
2024-02-11T19:37:45.162Z,20.73
2024-02-11T19:40:14.412Z,20.73
2024-02-11T19:42:43.414Z,20.75
2024-02-11T19:45:13.304Z,20.76
2024-02-11T19:47:41.708Z,20.80
2024-02-11T19:50:11.678Z,20.83
2024-02-11T19:52:40.189Z,20.85
2024-02-11T19:55:11.821Z,20.88
2024-02-11T19:57:41.517Z,20.89
2024-02-11T20:00:13.703Z,20.90
2024-02-11T20:02:42.359Z,20.90
2024-02-11T20:05:13.738Z,20.89
2024-02-11T20:07:42.441Z,20.91
2024-02-11T20:10:15.587Z,20.91
2024-02-11T20:12:44.456Z,20.89
2024-02-11T20:15:13.873Z,20.88
2024-02-11T20:17:43.652Z,20.86
2024-02-11T20:20:15.521Z,20.85
2024-02-11T20:22:45.014Z,20.85
2024-02-11T20:25:15.120Z,20.83
2024-02-11T20:27:43.490Z,20.82
2024-02-11T20:30:14.380Z,20.81
2024-02-11T20:32:45.112Z,20.80
2024-02-11T20:35:14.725Z,20.79
2024-02-11T20:37:42.899Z,20.76
2024-02-11T20:40:17.631Z,20.75
2024-02-11T20:42:46.314Z,20.73
2024-02-11T20:45:16.702Z,20.72
2024-02-11T20:47:47.049Z,20.70
2024-02-11T20:50:15.920Z,20.70
2024-02-11T20:52:44.162Z,20.67
2024-02-11T20:55:14.032Z,20.64
2024-02-11T20:57:43.634Z,20.62
2024-02-11T21:00:22.146Z,20.60
2024-02-11T21:02:51.862Z,20.59
2024-02-11T21:05:20.809Z,20.56
2024-02-11T21:07:49.310Z,20.54
2024-02-11T21:10:19.040Z,20.52
2024-02-11T21:12:47.376Z,20.51
2024-02-11T21:15:16.539Z,20.51
2024-02-11T21:17:45.342Z,20.54
2024-02-11T21:20:14.669Z,20.55
2024-02-11T21:22:44.034Z,20.56
2024-02-11T21:25:14.897Z,20.61
2024-02-11T21:27:53.148Z,20.63
2024-02-11T21:30:28.005Z,20.65
2024-02-11T21:32:58.917Z,20.66
2024-02-11T21:35:28.339Z,20.66
2024-02-11T21:37:56.799Z,20.65
2024-02-11T21:40:25.840Z,20.67
2024-02-11T21:42:55.795Z,20.67
2024-02-11T21:45:23.969Z,20.66
2024-02-11T21:47:52.665Z,20.66
2024-02-11T21:50:22.582Z,20.65
2024-02-11T21:52:51.034Z,20.64
2024-02-11T21:55:19.735Z,20.64
2024-02-11T21:57:48.269Z,20.63
2024-02-11T22:00:18.463Z,20.61
2024-02-11T22:02:48.263Z,20.61
2024-02-11T22:05:20.118Z,20.59
2024-02-11T22:07:49.561Z,20.59
2024-02-11T22:10:18.529Z,20.55
2024-02-11T22:12:49.002Z,20.54
2024-02-11T22:15:19.170Z,20.53
2024-02-11T22:17:49.680Z,20.51
2024-02-11T22:20:18.342Z,20.50
2024-02-11T22:22:46.954Z,20.48
2024-02-11T22:25:16.049Z,20.47
2024-02-11T22:27:44.402Z,20.46
2024-02-11T22:30:13.662Z,20.44
2024-02-11T22:32:43.512Z,20.44
2024-02-11T22:35:14.290Z,20.45
2024-02-11T22:37:43.049Z,20.45
2024-02-11T22:40:15.736Z,20.48
2024-02-11T22:42:43.987Z,20.50
2024-02-11T22:45:13.482Z,20.52
2024-02-11T22:47:43.196Z,20.54
2024-02-11T22:50:13.041Z,20.55
2024-02-11T22:52:41.653Z,20.56
2024-02-11T22:55:12.105Z,20.55
2024-02-11T22:57:41.210Z,20.57
2024-02-11T23:00:29.522Z,20.56
2024-02-11T23:03:00.989Z,20.55
2024-02-11T23:05:29.999Z,20.56
2024-02-11T23:07:58.194Z,20.54
2024-02-11T23:10:26.455Z,20.53
2024-02-11T23:12:54.907Z,20.52
2024-02-11T23:15:23.868Z,20.51
2024-02-11T23:17:52.173Z,20.50
2024-02-11T23:20:22.152Z,20.51
2024-02-11T23:22:51.526Z,20.47
2024-02-11T23:25:20.733Z,20.47
2024-02-11T23:27:50.774Z,20.46
2024-02-11T23:30:19.107Z,20.45
2024-02-11T23:32:48.823Z,20.43
2024-02-11T23:35:17.464Z,20.42
2024-02-11T23:37:46.978Z,20.41
2024-02-11T23:40:16.325Z,20.40
2024-02-11T23:42:45.001Z,20.39
2024-02-11T23:45:15.890Z,20.36
2024-02-11T23:47:44.588Z,20.34
2024-02-11T23:50:16.446Z,20.34
2024-02-11T23:52:48.996Z,20.34
2024-02-11T23:55:17.305Z,20.35
2024-02-11T23:57:46.091Z,20.36
